Time;durP1;ratioP1;P1;durP2;ratioP2;P2;SDS_P1;SDS_P2;PMS_P1;PMS_P2;Temp;Humidity;BMP_temperature;BMP_pressure;BME280_temperature;BME280_humidity;BME280_pressure;Samples;Min_cycle;Max_cycle;Signal;HPM_P1;HPM_P2
2021/04/14 00:02:12;;;;;;;2.53;1.88;;;;;;;10.53;100.00;97059.06;5109769;27;20019;-83
2021/04/14 00:04:37;;;;;;;4.45;2.40;;;;;;;10.51;100.00;97057.47;5105642;27;20042;-84
2021/04/14 00:07:03;;;;;;;3.20;1.73;;;;;;;10.53;100.00;97067.09;5113500;27;20033;-84
2021/04/14 00:09:30;;;;;;;1.48;1.38;;;;;;;10.55;100.00;97067.00;5107123;27;20171;-84
2021/04/14 00:11:59;;;;;;;3.38;2.38;;;;;;;10.52;100.00;97064.53;5113060;27;20542;-84
2021/04/14 00:14:27;;;;;;;1.00;0.93;;;;;;;10.61;100.00;97085.28;5110015;27;20790;-84
2021/04/14 00:16:54;;;;;;;3.83;1.55;;;;;;;10.61;100.00;97077.25;5107213;27;20019;-85
2021/04/14 00:19:19;;;;;;;2.40;1.63;;;;;;;10.68;100.00;97075.84;5106450;27;20065;-84
2021/04/14 00:21:45;;;;;;;9.50;2.83;;;;;;;10.71;100.00;97089.88;5100664;27;20027;-85
2021/04/14 00:24:15;;;;;;;7.63;1.40;;;;;;;10.67;100.00;97074.16;5106695;27;20023;-84
2021/04/14 00:26:40;;;;;;;4.97;1.38;;;;;;;10.65;100.00;97070.72;5107156;27;20111;-84
2021/04/14 00:29:06;;;;;;;4.93;1.75;;;;;;;10.68;100.00;97060.66;5107301;27;20477;-83
2021/04/14 00:31:35;;;;;;;4.18;1.75;;;;;;;10.74;100.00;97062.91;5104059;27;20098;-85
2021/04/14 00:34:06;;;;;;;2.58;2.03;;;;;;;10.71;100.00;97063.13;5103751;28;20019;-86
2021/04/14 00:36:33;;;;;;;2.17;1.98;;;;;;;10.63;100.00;97056.59;5097918;27;20034;-86
2021/04/14 00:38:59;;;;;;;1.88;1.67;;;;;;;10.60;100.00;97051.47;5104358;27;20458;-86
2021/04/14 00:41:24;;;;;;;8.57;3.28;;;;;;;10.52;100.00;97054.66;5111792;27;20106;-85
2021/04/14 00:43:50;;;;;;;1.48;1.27;;;;;;;10.51;100.00;97052.13;5110506;27;20049;-84
2021/04/14 00:46:15;;;;;;;4.60;1.55;;;;;;;10.47;100.00;97046.13;5101343;27;20086;-84
2021/04/14 00:48:41;;;;;;;2.00;1.67;;;;;;;10.46;100.00;97057.78;5101783;27;20044;-84
2021/04/14 00:51:08;;;;;;;1.25;1.15;;;;;;;10.39;100.00;97058.31;5124521;27;20030;-85
2021/04/14 00:53:33;;;;;;;5.00;3.28;;;;;;;10.27;100.00;97055.50;5121094;27;20106;-85
2021/04/14 00:56:00;;;;;;;4.78;1.00;;;;;;;10.28;100.00;97059.03;5111147;27;20058;-84
2021/04/14 00:58:25;;;;;;;7.35;3.08;;;;;;;10.33;100.00;97057.78;5114354;27;20031;-85
2021/04/14 01:00:52;;;;;;;5.43;2.58;;;;;;;10.45;100.00;97063.25;5109824;27;20030;-85
2021/04/14 01:03:23;;;;;;;1.90;1.23;;;;;;;10.48;100.00;97058.53;5122047;27;20096;-86
2021/04/14 01:05:50;;;;;;;6.15;1.73;;;;;;;10.55;100.00;97058.97;5101586;27;20507;-85
2021/04/14 01:08:16;;;;;;;1.65;1.55;;;;;;;10.57;100.00;97052.56;5106387;27;20105;-84
2021/04/14 01:10:42;;;;;;;4.95;2.00;;;;;;;10.57;100.00;97052.56;5117870;27;20027;-85
2021/04/14 01:13:08;;;;;;;5.30;2.33;;;;;;;10.63;100.00;97053.94;5097650;27;20023;-85
2021/04/14 01:15:42;;;;;;;3.33;2.05;;;;;;;10.64;100.00;97052.97;5108298;27;20015;-85
2021/04/14 01:18:11;;;;;;;2.53;1.88;;;;;;;10.63;100.00;97059.28;5126984;27;20023;-85
2021/04/14 01:20:37;;;;;;;2.30;1.73;;;;;;;10.62;100.00;97055.75;5102063;27;20023;-85
2021/04/14 01:23:04;;;;;;;3.75;2.35;;;;;;;10.55;100.00;97049.09;5105637;27;20079;-85
2021/04/14 01:25:37;;;;;;;1.55;1.45;;;;;;;10.54;100.00;97041.22;5108290;27;20049;-85
2021/04/14 01:28:05;;;;;;;3.03;1.02;;;;;;;10.59;100.00;97053.28;5116122;28;20034;-85
2021/04/14 01:30:30;;;;;;;7.53;2.05;;;;;;;10.58;100.00;97045.38;5100406;27;20034;-84
2021/04/14 01:32:57;;;;;;;4.90;1.88;;;;;;;10.53;100.00;97039.47;5111824;27;20027;-85
2021/04/14 01:35:25;;;;;;;4.43;2.75;;;;;;;10.53;100.00;97045.69;5126239;27;20038;-83
2021/04/14 01:37:51;;;;;;;5.32;2.35;;;;;;;10.56;100.00;97045.47;5108635;28;20040;-85
2021/04/14 01:40:18;;;;;;;3.95;2.63;;;;;;;10.54;100.00;97052.75;5090308;27;20046;-85
2021/04/14 01:42:44;;;;;;;7.25;2.05;;;;;;;10.51;100.00;97052.13;5110056;27;20019;-84
2021/04/14 01:45:11;;;;;;;2.85;1.83;;;;;;;10.57;100.00;97054.38;5102542;28;20505;-85
2021/04/14 01:47:37;;;;;;;7.95;3.28;;;;;;;10.55;100.00;97045.59;5128427;27;20022;-84
2021/04/14 01:50:04;;;;;;;7.57;1.75;;;;;;;10.58;100.00;97046.22;5101485;27;20026;-85
2021/04/14 01:52:30;;;;;;;2.92;1.58;;;;;;;10.60;100.00;97056.81;5109606;27;20027;-85
2021/04/14 01:54:56;;;;;;;4.78;2.17;;;;;;;10.53;100.00;97051.03;5105647;28;20031;-84
2021/04/14 01:57:21;;;;;;;8.27;2.30;;;;;;;10.57;100.00;97057.03;5116569;27;20022;-85
2021/04/14 01:59:48;;;;;;;2.72;2.40;;;;;;;10.54;100.00;97063.47;5110021;27;20027;-85
2021/04/14 02:02:13;;;;;;;1.60;1.50;;;;;;;10.57;100.00;97068.59;5104856;27;20030;-85
2021/04/14 02:04:39;;;;;;;2.78;2.05;;;;;;;10.56;100.00;97066.88;5109877;27;20027;-85
2021/04/14 02:07:04;;;;;;;4.47;2.60;;;;;;;10.52;100.00;97076.06;5107310;27;20462;-85
2021/04/14 02:09:30;;;;;;;1.98;1.77;;;;;;;10.49;100.00;97086.13;5108341;27;20060;-85
2021/04/14 02:11:56;;;;;;;1.17;1.02;;;;;;;10.46;100.00;97091.69;5127605;27;20031;-85
2021/04/14 02:14:21;;;;;;;3.40;1.58;;;;;;;10.48;100.00;97095.13;5098147;27;20047;-85
2021/04/14 02:16:47;;;;;;;0.45;0.45;;;;;;;10.16;100.00;97103.50;5116610;27;20069;-84
2021/04/14 02:19:13;;;;;;;3.05;1.48;;;;;;;10.11;100.00;97110.94;5126867;27;20030;-85
2021/04/14 02:21:38;;;;;;;20.98;2.67;;;;;;;10.09;100.00;97126.22;5103009;27;20114;-85
2021/04/14 02:24:04;;;;;;;10.80;1.55;;;;;;;10.07;100.00;97129.94;5115005;27;20508;-85
2021/04/14 02:26:30;;;;;;;1.13;0.70;;;;;;;10.09;100.00;97136.06;5110297;27;20051;-85
2021/04/14 02:28:56;;;;;;;2.28;0.70;;;;;;;10.09;100.00;97141.41;5104558;27;20030;-85
2021/04/14 02:31:30;;;;;;;8.07;1.45;;;;;;;10.10;100.00;97149.31;5101717;27;20060;-85
2021/04/14 02:34:02;;;;;;;0.70;0.70;;;;;;;10.09;100.00;97139.56;5100954;27;20051;-86
2021/04/14 02:36:28;;;;;;;0.10;0.10;;;;;;;9.94;100.00;97137.06;5121064;27;20025;-85
2021/04/14 02:38:53;;;;;;;0.10;0.10;;;;;;;9.68;100.00;97136.09;5100736;28;20445;-85
2021/04/14 02:41:20;;;;;;;0.05;0.05;;;;;;;9.58;100.00;97140.31;5115554;27;20092;-85
2021/04/14 02:43:47;;;;;;;0.63;0.20;;;;;;;9.42;100.00;97142.25;5105670;27;20026;-85
2021/04/14 02:46:12;;;;;;;0.13;0.13;;;;;;;9.27;100.00;97134.28;5114662;27;20144;-84
2021/04/14 02:48:38;;;;;;;0.47;0.30;;;;;;;9.16;100.00;97131.44;5115871;27;20063;-84
2021/04/14 02:51:04;;;;;;;0.20;0.20;;;;;;;9.09;100.00;97111.44;5115719;27;20084;-84
2021/04/14 02:53:30;;;;;;;0.20;0.20;;;;;;;8.93;100.00;97057.31;5109347;27;20022;-85
2021/04/14 02:55:56;;;;;;;0.22;0.22;;;;;;;8.92;100.00;97049.44;5109892;27;20060;-84
2021/04/14 02:58:21;;;;;;;0.20;0.20;;;;;;;8.87;100.00;97049.72;5128072;27;20057;-85
2021/04/14 03:00:47;;;;;;;0.10;0.10;;;;;;;8.91;100.00;97066.38;5110404;27;20065;-85
2021/04/14 03:03:13;;;;;;;1.00;0.65;;;;;;;8.92;100.00;97060.09;5109108;27;20084;-84
2021/04/14 03:05:38;;;;;;;0.52;0.45;;;;;;;8.94;100.00;97061.72;5112827;27;20027;-85
2021/04/14 03:08:04;;;;;;;0.25;0.25;;;;;;;8.99;100.00;97067.59;5130270;27;20105;-85
2021/04/14 03:10:30;;;;;;;0.20;0.20;;;;;;;8.94;100.00;97061.72;5128436;27;20481;-85
2021/04/14 03:12:56;;;;;;;0.20;0.20;;;;;;;8.83;100.00;97060.69;5130649;27;20083;-85
2021/04/14 03:15:25;;;;;;;0.40;0.40;;;;;;;8.87;100.00;97057.72;5113003;27;20055;-85
2021/04/14 03:17:51;;;;;;;0.00;0.00;;;;;;;8.83;100.00;97066.84;5109246;27;20102;-85
2021/04/14 03:20:17;;;;;;;0.10;0.10;;;;;;;8.82;100.00;97065.16;5107437;27;20106;-84
2021/04/14 03:22:43;;;;;;;0.30;0.30;;;;;;;8.63;100.00;97067.25;5109415;27;20499;-85
2021/04/14 03:25:10;;;;;;;0.75;0.30;;;;;;;8.54;100.00;97073.16;5122088;27;20034;-83
2021/04/14 03:27:35;;;;;;;0.28;0.28;;;;;;;8.53;100.00;97080.28;5114529;27;20043;-84
2021/04/14 03:30:02;;;;;;;0.10;0.10;;;;;;;8.45;100.00;97087.91;5109714;28;20106;-84
2021/04/14 03:32:28;;;;;;;1.25;0.68;;;;;;;8.39;100.00;97084.75;5105858;27;20398;-83
2021/04/14 03:34:53;;;;;;;3.60;0.82;;;;;;;8.23;100.00;97081.25;5102384;27;20023;-84
2021/04/14 03:37:19;;;;;;;0.20;0.20;;;;;;;8.23;100.00;97099.91;5137132;27;20122;-83
2021/04/14 03:39:46;;;;;;;0.43;0.43;;;;;;;8.18;100.00;97095.69;5111464;27;20027;-83
2021/04/14 03:42:12;;;;;;;0.88;0.88;;;;;;;8.18;100.00;97085.03;5133691;27;20027;-83
2021/04/14 03:44:37;;;;;;;0.10;0.10;;;;;;;8.29;100.00;97087.09;5104257;27;20059;-84
2021/04/14 03:47:04;;;;;;;1.27;0.77;;;;;;;8.26;100.00;97081.06;5105560;27;20031;-83
2021/04/14 03:49:31;;;;;;;0.95;0.57;;;;;;;8.16;100.00;97076.28;5111685;27;20118;-84
2021/04/14 03:51:56;;;;;;;1.60;0.70;;;;;;;8.14;100.00;97075.53;5107634;27;20071;-83
2021/04/14 03:54:22;;;;;;;23.25;7.28;;;;;;;8.21;100.00;97085.81;5104304;27;20439;-83
2021/04/14 03:56:48;;;;;;;7.53;3.92;;;;;;;8.25;100.00;97090.88;5116194;27;20015;-83
2021/04/14 03:59:14;;;;;;;1.77;1.42;;;;;;;8.16;100.00;97086.94;5104433;27;20023;-83
2021/04/14 04:01:39;;;;;;;1.17;1.10;;;;;;;8.26;100.00;97095.25;5110924;27;20544;-83
2021/04/14 04:04:05;;;;;;;3.15;1.17;;;;;;;8.24;100.00;97094.50;5123417;27;20023;-83
2021/04/14 04:06:30;;;;;;;0.30;0.30;;;;;;;8.28;100.00;97092.50;5104737;27;20427;-84
2021/04/14 04:08:56;;;;;;;2.67;1.33;;;;;;;8.21;100.00;97093.81;5113471;27;20121;-84
2021/04/14 04:11:23;;;;;;;0.40;0.40;;;;;;;8.23;100.00;97102.56;5101772;27;20029;-84
2021/04/14 04:13:50;;;;;;;1.38;0.32;;;;;;;8.28;100.00;97108.50;5097168;27;20031;-84
2021/04/14 04:16:15;;;;;;;0.50;0.50;;;;;;;8.36;100.00;97124.91;5111489;27;20027;-83
2021/04/14 04:18:41;;;;;;;0.28;0.28;;;;;;;8.37;100.00;97114.13;5104247;27;20037;-84
2021/04/14 04:21:08;;;;;;;0.68;0.50;;;;;;;8.39;100.00;97114.91;5109588;27;20062;-83
2021/04/14 04:23:34;;;;;;;0.08;0.08;;;;;;;8.43;100.00;97121.75;5107698;27;20455;-82
2021/04/14 04:25:59;;;;;;;1.35;1.05;;;;;;;8.56;100.00;97128.06;5105714;27;20047;-83
2021/04/14 04:28:25;;;;;;;0.95;0.43;;;;;;;8.54;100.00;97123.78;5089226;27;20055;-82
2021/04/14 04:30:51;;;;;;;0.65;0.60;;;;;;;8.59;100.00;97127.88;5112588;27;20087;-82
2021/04/14 04:33:18;;;;;;;0.57;0.57;;;;;;;8.64;100.00;97127.63;5107929;27;20063;-84
2021/04/14 04:35:46;;;;;;;0.10;0.10;;;;;;;8.65;100.00;97122.19;5112865;27;20477;-85
2021/04/14 04:38:12;;;;;;;0.35;0.30;;;;;;;8.77;100.00;97135.72;5125419;27;20026;-83
2021/04/14 04:40:37;;;;;;;0.80;0.77;;;;;;;8.82;100.00;97137.16;5110890;27;20033;-84
2021/04/14 04:43:03;;;;;;;5.85;1.48;;;;;;;8.91;100.00;97133.06;5106568;27;20123;-83
2021/04/14 04:45:31;;;;;;;0.60;0.47;;;;;;;8.95;100.00;97135.41;5107808;27;20410;-84
2021/04/14 04:47:57;;;;;;;2.05;1.25;;;;;;;9.00;100.00;97144.03;5101398;27;20087;-84
2021/04/14 04:50:27;;;;;;;0.38;0.38;;;;;;;8.90;100.00;97139.34;5124561;27;20155;-83
2021/04/14 04:52:57;;;;;;;0.20;0.20;;;;;;;8.91;100.00;97143.72;5100887;27;20051;-84
2021/04/14 04:55:25;;;;;;;1.45;1.23;;;;;;;8.94;100.00;97141.72;5108634;27;20450;-86
2021/04/14 04:57:51;;;;;;;0.88;0.70;;;;;;;9.01;100.00;97140.38;5101747;27;20043;-78
2021/04/14 05:00:18;;;;;;;0.50;0.50;;;;;;;8.99;100.00;97147.63;5105910;27;20124;-83
2021/04/14 05:02:43;;;;;;;3.28;0.88;;;;;;;9.08;100.00;97151.53;5110527;27;20050;-83
2021/04/14 05:05:12;;;;;;;0.90;0.90;;;;;;;9.10;100.00;97152.31;5106367;27;20128;-81
2021/04/14 05:07:38;;;;;;;2.95;2.13;;;;;;;9.10;100.00;97152.31;5101426;27;20023;-77
2021/04/14 05:10:04;;;;;;;1.17;0.98;;;;;;;9.12;100.00;97161.94;5121218;27;20030;-76
2021/04/14 05:12:30;;;;;;;4.00;1.27;;;;;;;9.15;100.00;97161.75;5117341;27;20019;-77
2021/04/14 05:14:55;;;;;;;1.35;1.25;;;;;;;9.14;100.00;97152.00;5120314;27;20030;-77
2021/04/14 05:17:21;;;;;;;0.85;0.85;;;;;;;9.23;100.00;97164.78;5120502;28;20110;-77
2021/04/14 05:19:47;;;;;;;1.58;1.48;;;;;;;9.03;100.00;97154.50;5119527;27;20026;-83
2021/04/14 05:22:12;;;;;;;8.13;2.45;;;;;;;9.12;100.00;97163.72;5118763;27;20037;-83
2021/04/14 05:24:38;;;;;;;1.13;1.02;;;;;;;9.10;100.00;97160.31;5110945;27;20027;-88
2021/04/14 05:27:04;;;;;;;0.35;0.35;;;;;;;9.11;100.00;97162.88;5098620;28;20070;-83
2021/04/14 05:29:30;;;;;;;0.38;0.38;;;;;;;9.43;100.00;97168.00;5115572;28;20030;-82
2021/04/14 05:31:57;;;;;;;0.90;0.82;;;;;;;9.56;100.00;97168.94;5106392;27;20031;-82
2021/04/14 05:34:22;;;;;;;3.58;1.05;;;;;;;9.68;100.00;97174.34;5123789;27;20057;-82
2021/04/14 05:36:48;;;;;;;2.60;1.45;;;;;;;9.44;100.00;97183.06;5111564;27;20054;-82
2021/04/14 05:39:14;;;;;;;3.33;1.10;;;;;;;9.28;100.00;97177.84;5112272;27;20033;-81
2021/04/14 05:41:39;;;;;;;0.73;0.63;;;;;;;9.18;100.00;97177.56;5107061;27;20022;-84
2021/04/14 05:44:05;;;;;;;2.53;1.35;;;;;;;9.22;100.00;97172.88;5111763;27;20033;-84
2021/04/14 05:46:30;;;;;;;5.05;2.38;;;;;;;9.24;100.00;97176.31;5118370;27;20022;-85
2021/04/14 05:48:56;;;;;;;3.58;1.27;;;;;;;9.25;100.00;97181.56;5123371;27;20080;-85
2021/04/14 05:51:25;;;;;;;2.35;1.60;;;;;;;8.92;100.00;97172.94;5101583;27;20031;-84
2021/04/14 05:53:51;;;;;;;2.63;1.70;;;;;;;8.88;100.00;97175.91;5112087;27;20030;-85
2021/04/14 05:56:17;;;;;;;1.55;0.57;;;;;;;8.85;100.00;97176.09;5113528;27;20023;-85
2021/04/14 05:58:43;;;;;;;1.30;0.77;;;;;;;8.81;100.00;97183.44;5109298;27;20113;-85
2021/04/14 06:01:10;;;;;;;1.42;0.73;;;;;;;8.86;100.00;97173.34;5108601;27;20118;-85
2021/04/14 06:03:36;;;;;;;0.70;0.60;;;;;;;8.93;100.00;97180.00;5110206;27;20478;-85
2021/04/14 06:06:02;;;;;;;2.15;1.55;;;;;;;9.00;100.00;97175.16;5115135;27;20038;-85
2021/04/14 06:08:28;;;;;;;1.77;0.57;;;;;;;9.10;100.00;97176.31;5127567;27;20048;-84
2021/04/14 06:10:58;;;;;;;1.45;1.35;;;;;;;9.11;100.00;97178.88;5107818;27;20504;-85
2021/04/14 06:13:23;;;;;;;3.50;1.70;;;;;;;9.09;100.00;97180.78;5116533;27;20115;-85
2021/04/14 06:15:49;;;;;;;6.90;2.63;;;;;;;9.12;100.00;97188.59;5112764;27;20050;-85
2021/04/14 06:18:14;;;;;;;4.30;1.08;;;;;;;8.96;100.00;97182.50;5108730;27;20118;-84
2021/04/14 06:20:40;;;;;;;14.30;1.88;;;;;;;9.04;100.00;97192.72;5108481;27;20037;-85
2021/04/14 06:23:12;;;;;;;0.63;0.35;;;;;;;9.14;100.00;97189.34;5107584;27;20023;-84
2021/04/14 06:25:45;;;;;;;1.55;0.73;;;;;;;9.14;100.00;97205.38;5115175;27;20056;-84
2021/04/14 06:28:10;;;;;;;2.45;0.80;;;;;;;9.25;100.00;97208.25;5103263;27;20857;-84
2021/04/14 06:30:38;;;;;;;5.68;0.93;;;;;;;9.29;100.00;97210.72;5109903;27;20023;-83
2021/04/14 06:33:10;;;;;;;0.75;0.68;;;;;;;9.43;100.00;97219.59;5133578;27;20027;-83
2021/04/14 06:35:35;;;;;;;0.83;0.80;;;;;;;9.58;99.56;97223.09;5109021;27;20022;-83
2021/04/14 06:38:07;;;;;;;1.92;1.25;;;;;;;9.43;96.78;97208.91;5108939;27;20030;-84
2021/04/14 06:40:50;;;;;;;2.30;1.52;;;;;;;9.49;97.53;97210.31;5106361;27;20023;-84
2021/04/14 06:43:40;;;;;;;0.57;0.57;;;;;;;9.51;96.75;97221.75;5123671;27;20026;-84
2021/04/14 06:46:14;;;;;;;2.75;1.27;;;;;;;9.69;96.28;97233.97;5105425;27;20084;-84
2021/04/14 06:49:00;;;;;;;0.55;0.55;;;;;;;9.92;95.30;97233.34;5127422;27;20015;-83
2021/04/14 06:51:34;;;;;;;1.38;1.08;;;;;;;9.85;93.63;97245.38;5108561;27;20064;-85
2021/04/14 06:54:15;;;;;;;0.73;0.68;;;;;;;9.86;94.57;97249.75;5105052;27;20141;-82
2021/04/14 06:56:41;;;;;;;0.60;0.60;;;;;;;9.90;93.34;97248.63;5103773;27;20031;-82
2021/04/14 06:59:11;;;;;;;0.68;0.68;;;;;;;9.97;93.67;97249.91;5108144;27;20054;-82
2021/04/14 07:01:41;;;;;;;1.45;0.82;;;;;;;10.10;93.16;97245.50;5107496;27;20050;-83
2021/04/14 07:04:26;;;;;;;0.45;0.45;;;;;;;10.17;93.35;97246.88;5109417;27;20035;-84
2021/04/14 07:06:53;;;;;;;0.47;0.35;;;;;;;10.32;92.08;97250.34;5109801;27;20573;-83
2021/04/14 07:09:37;;;;;;;1.33;0.77;;;;;;;10.47;89.21;97254.69;5104981;27;20033;-83
2021/04/14 07:12:08;;;;;;;0.20;0.20;;;;;;;10.39;92.05;97256.16;5107677;27;20519;-83
2021/04/14 07:14:34;;;;;;;0.70;0.30;;;;;;;10.44;89.02;97259.38;5118215;27;20026;-82
2021/04/14 07:17:13;;;;;;;0.45;0.45;;;;;;;10.63;88.55;97254.53;5111481;27;20405;-82
2021/04/14 07:20:06;;;;;;;0.50;0.50;;;;;;;10.83;88.21;97248.69;5126762;27;20023;-82
2021/04/14 07:22:37;;;;;;;0.15;0.15;;;;;;;11.60;85.68;97245.06;5109414;27;20069;-83
2021/04/14 07:25:07;;;;;;;0.53;0.30;;;;;;;12.37;81.44;97250.19;5122195;27;20035;-82
2021/04/14 07:27:45;;;;;;;1.27;0.55;;;;;;;12.88;76.26;97250.81;5099991;27;20027;-82
2021/04/14 07:30:20;;;;;;;0.95;0.85;;;;;;;13.19;76.26;97231.41;5113142;27;20095;-83
2021/04/14 07:33:17;;;;;;;0.70;0.52;;;;;;;13.40;74.84;97253.91;5103840;27;20045;-84
2021/04/14 07:36:00;;;;;;;0.30;0.30;;;;;;;14.55;68.52;97259.88;5123322;27;20562;-84
2021/04/14 07:39:11;;;;;;;0.73;0.73;;;;;;;14.64;69.56;97259.97;5098690;27;20078;-84
2021/04/14 07:42:02;;;;;;;1.45;1.10;;;;;;;15.79;64.76;97260.00;5118177;27;20492;-84
2021/04/14 07:44:42;;;;;;;1.20;0.45;;;;;;;15.62;63.05;97255.25;5116781;27;20042;-84
2021/04/14 07:47:12;;;;;;;3.83;0.93;;;;;;;15.74;61.91;97251.47;5108375;27;20080;-84
2021/04/14 07:49:37;;;;;;;0.25;0.25;;;;;;;17.67;57.19;97258.91;5107106;27;20462;-88
2021/04/14 07:52:04;;;;;;;0.75;0.60;;;;;;;18.87;51.29;97266.97;5106966;27;20113;-85
2021/04/14 07:54:47;;;;;;;11.80;0.73;;;;;;;18.58;53.43;97264.41;5110978;27;20031;-84
2021/04/14 07:57:13;;;;;;;1.45;0.73;;;;;;;19.36;49.64;97265.56;5114930;27;20034;-84
2021/04/14 07:59:40;;;;;;;0.77;0.57;;;;;;;17.68;52.23;97256.09;5108077;27;20572;-84
2021/04/14 08:02:11;;;;;;;3.03;0.55;;;;;;;18.29;53.81;97267.25;5118288;27;20069;-84
2021/04/14 08:04:41;;;;;;;0.77;0.40;;;;;;;17.45;55.32;97249.25;5109569;27;20027;-82
2021/04/14 08:07:13;;;;;;;0.65;0.60;;;;;;;17.74;55.19;97260.91;5116488;27;20501;-83
2021/04/14 08:10:15;;;;;;;0.73;0.60;;;;;;;18.60;50.02;97273.28;5111295;28;20027;-83
2021/04/14 08:12:59;;;;;;;0.75;0.45;;;;;;;19.34;48.79;97262.16;5098993;27;20022;-84
2021/04/14 08:15:30;;;;;;;2.45;1.15;;;;;;;19.56;48.18;97266.28;5140793;27;20019;-84
2021/04/14 08:18:08;;;;;;;0.28;0.28;;;;;;;19.06;48.78;97279.53;5123885;27;20027;-83
2021/04/14 08:20:35;;;;;;;1.50;0.90;;;;;;;17.75;50.39;97261.75;5109919;27;20044;-82
2021/04/14 08:23:34;;;;;;;1.88;0.43;;;;;;;17.06;54.23;97261.94;5110179;27;20400;-83
2021/04/14 08:26:01;;;;;;;1.85;0.65;;;;;;;16.65;55.29;97265.75;5105335;27;20043;-83
2021/04/14 08:28:42;;;;;;;0.52;0.43;;;;;;;17.40;56.97;97273.19;5112219;27;20509;-82
2021/04/14 08:31:46;;;;;;;0.30;0.30;;;;;;;17.72;52.86;97284.53;5106273;27;20034;-85
2021/04/14 08:34:24;;;;;;;0.90;0.60;;;;;;;17.59;52.39;97273.19;5129719;27;20034;-83
2021/04/14 08:37:05;;;;;;;0.70;0.70;;;;;;;17.04;53.48;97279.31;5104135;27;20857;-84
2021/04/14 08:39:33;;;;;;;0.52;0.40;;;;;;;15.67;57.52;97264.63;5118143;27;20130;-83
2021/04/14 08:42:09;;;;;;;0.47;0.30;;;;;;;15.33;58.65;97259.53;5122981;27;20022;-83
2021/04/14 08:44:36;;;;;;;0.60;0.50;;;;;;;15.84;57.66;97257.78;5102832;27;20030;-83
2021/04/14 08:47:16;;;;;;;2.20;1.23;;;;;;;16.47;59.31;97255.72;5102829;27;20026;-84
2021/04/14 08:49:43;;;;;;;0.25;0.20;;;;;;;17.03;55.01;97259.53;5102479;27;20417;-84
2021/04/14 08:52:16;;;;;;;0.63;0.55;;;;;;;16.54;54.76;97252.38;5103853;27;20022;-84
2021/04/14 08:54:41;;;;;;;1.30;0.73;;;;;;;16.20;56.50;97248.25;5107936;27;20046;-84
2021/04/14 08:57:07;;;;;;;0.73;0.73;;;;;;;16.40;57.66;97255.41;5113112;27;20497;-83
2021/04/14 08:59:33;;;;;;;0.93;0.50;;;;;;;16.25;53.82;97259.50;5102879;27;20501;-84
2021/04/14 09:02:02;;;;;;;0.60;0.60;;;;;;;14.92;59.53;97257.69;5108277;27;20030;-83
2021/04/14 09:04:28;;;;;;;1.30;0.75;;;;;;;13.62;64.48;97239.66;5099831;27;20023;-83
2021/04/14 09:06:54;;;;;;;0.30;0.30;;;;;;;13.35;66.98;97258.78;5118541;27;20107;-83
2021/04/14 09:09:27;;;;;;;2.42;1.15;;;;;;;14.19;64.80;97254.75;5126136;27;20019;-84
2021/04/14 09:12:11;;;;;;;0.20;0.20;;;;;;;15.05;62.75;97258.34;5089837;27;20023;-83
2021/04/14 09:14:37;;;;;;;0.40;0.40;;;;;;;16.65;54.81;97259.47;5098033;28;20444;-84
2021/04/14 09:17:23;;;;;;;1.65;0.80;;;;;;;17.04;53.36;97266.63;5121873;27;20023;-84
2021/04/14 09:19:51;;;;;;;2.17;0.55;;;;;;;16.67;54.10;97252.94;5103598;27;20024;-83
2021/04/14 09:22:25;;;;;;;2.05;0.57;;;;;;;19.26;50.03;97254.81;5105699;28;20030;-83
2021/04/14 09:24:53;;;;;;;0.30;0.30;;;;;;;20.13;45.89;97265.66;5100922;27;20035;-83
2021/04/14 09:27:30;;;;;;;0.35;0.32;;;;;;;19.77;47.03;97278.50;5101695;28;20496;-84
2021/04/14 09:30:17;;;;;;;0.90;0.68;;;;;;;19.45;45.21;97270.09;5093269;28;20387;-81
2021/04/14 09:32:46;;;;;;;3.92;1.15;;;;;;;20.05;44.65;97270.19;5081374;28;20036;-85
2021/04/14 09:35:14;;;;;;;1.55;0.55;;;;;;;19.50;45.96;97270.50;5078616;28;20752;-83
2021/04/14 09:37:40;;;;;;;0.35;0.30;;;;;;;20.50;43.67;97265.38;5085275;28;20028;-84
2021/04/14 09:40:06;;;;;;;2.10;1.02;;;;;;;21.82;40.44;97262.56;5078454;28;20042;-84
2021/04/14 09:42:39;;;;;;;0.25;0.25;;;;;;;22.42;40.11;97259.41;5074828;28;20024;-84
2021/04/14 09:45:32;;;;;;;4.07;1.42;;;;;;;24.21;37.10;97256.16;5075680;28;20110;-83
2021/04/14 09:48:01;;;;;;;1.17;1.10;;;;;;;24.98;36.79;97256.59;5082953;28;20023;-82
2021/04/14 09:50:32;;;;;;;0.52;0.32;;;;;;;25.72;33.44;97257.22;5078212;28;20028;-83
2021/04/14 09:53:01;;;;;;;0.15;0.15;;;;;;;24.43;35.08;97248.06;5093887;28;20036;-81
2021/04/14 09:55:39;;;;;;;0.13;0.13;;;;;;;25.60;32.51;97245.94;5097725;28;20031;-83
2021/04/14 09:58:08;;;;;;;0.20;0.20;;;;;;;24.53;34.24;97251.34;5072113;28;20084;-84
2021/04/14 10:00:40;;;;;;;0.20;0.20;;;;;;;21.09;39.76;97258.97;5074607;28;20031;-78
2021/04/14 10:03:21;;;;;;;0.22;0.22;;;;;;;21.29;39.69;97252.16;5064507;28;20028;-81
2021/04/14 10:05:50;;;;;;;2.63;1.30;;;;;;;23.40;36.28;97234.19;5079558;28;20131;-80
2021/04/14 10:08:17;;;;;;;0.40;0.40;;;;;;;23.49;35.81;97245.88;5080148;28;20031;-81
2021/04/14 10:10:45;;;;;;;1.13;0.60;;;;;;;24.39;35.15;97238.53;5066332;28;20031;-80
2021/04/14 10:13:13;;;;;;;3.33;2.67;;;;;;;25.16;32.62;97232.38;5079046;28;20038;-81
2021/04/14 10:15:41;;;;;;;8.55;4.85;;;;;;;25.41;31.85;97240.25;5073063;28;20028;-81
2021/04/14 10:18:16;;;;;;;4.68;4.20;;;;;;;24.90;32.84;97229.34;5090921;28;20115;-82
2021/04/14 10:20:42;;;;;;;6.30;4.13;;;;;;;25.20;33.04;97228.22;5103947;28;20027;-79
2021/04/14 10:23:16;;;;;;;4.10;3.70;;;;;;;24.54;34.05;97242.13;5080086;28;20034;-79
2021/04/14 10:25:42;;;;;;;4.97;3.28;;;;;;;23.63;33.72;97226.81;5082293;27;20050;-78
2021/04/14 10:28:17;;;;;;;8.32;3.10;;;;;;;22.79;34.62;97239.66;5099091;27;20038;-78
2021/04/14 10:30:44;;;;;;;10.35;3.33;;;;;;;24.27;34.85;97243.63;5103718;28;20047;-78
2021/04/14 10:33:17;;;;;;;4.78;2.97;;;;;;;25.94;31.99;97228.75;5103977;27;20034;-78
2021/04/14 10:35:44;;;;;;;4.25;2.80;;;;;;;24.95;32.54;97231.53;5110318;28;20035;-79
2021/04/14 10:38:10;;;;;;;3.03;2.50;;;;;;;24.32;32.15;97215.72;5100564;28;20024;-79
2021/04/14 10:40:38;;;;;;;3.25;2.90;;;;;;;23.48;34.21;97222.31;5110204;28;20080;-79
2021/04/14 10:43:20;;;;;;;3.67;2.63;;;;;;;24.49;34.58;97239.09;5111216;28;20173;-79
2021/04/14 10:45:59;;;;;;;6.37;2.60;;;;;;;25.73;31.80;97228.78;5108335;28;20039;-79
2021/04/14 10:48:26;;;;;;;5.20;2.65;;;;;;;24.57;35.51;97222.59;5083370;27;20122;-79
2021/04/14 10:51:09;;;;;;;4.00;3.00;;;;;;;25.93;32.94;97221.59;5105812;28;20036;-79
2021/04/14 10:53:37;;;;;;;3.45;2.63;;;;;;;24.48;33.39;97218.25;5101752;27;20139;-79
2021/04/14 10:56:04;;;;;;;4.82;3.20;;;;;;;22.92;34.03;97220.81;5085828;28;20896;-78
2021/04/14 10:58:31;;;;;;;2.50;2.30;;;;;;;22.50;34.61;97224.75;5120746;27;20028;-79
2021/04/14 11:00:56;;;;;;;10.55;4.05;;;;;;;22.29;35.52;97229.09;5103158;28;20084;-79
2021/04/14 11:03:24;;;;;;;21.73;3.30;;;;;;;22.45;33.75;97223.59;5103611;28;20513;-78
2021/04/14 11:05:57;;;;;;;9.02;3.50;;;;;;;23.33;35.16;97218.66;5110170;27;20023;-78
2021/04/14 11:08:25;;;;;;;12.93;3.30;;;;;;;24.86;32.15;97217.09;5107630;27;20030;-78
2021/04/14 11:10:56;;;;;;;4.40;3.00;;;;;;;26.05;29.63;97211.78;5094951;28;20034;-79
2021/04/14 11:13:29;;;;;;;9.03;3.40;;;;;;;27.79;29.12;97209.31;5094634;28;20391;-80
2021/04/14 11:15:55;;;;;;;8.13;4.10;;;;;;;28.67;27.15;97206.06;5115102;27;20027;-79
2021/04/14 11:18:36;;;;;;;4.05;2.85;;;;;;;28.87;25.80;97200.50;5095825;28;20031;-77
2021/04/14 11:21:08;;;;;;;8.52;2.22;;;;;;;27.65;26.46;97196.66;5093456;27;20027;-79
2021/04/14 11:23:45;;;;;;;2.95;2.35;;;;;;;25.17;29.34;97209.44;5096557;27;20043;-77
2021/04/14 11:26:15;;;;;;;4.32;2.10;;;;;;;24.03;31.21;97205.56;5091700;27;20138;-78
2021/04/14 11:28:54;;;;;;;3.80;3.00;;;;;;;26.10;30.74;97212.00;5110263;27;20023;-78
2021/04/14 11:31:50;;;;;;;5.95;3.85;;;;;;;25.04;30.43;97206.56;5104593;27;20038;-78
2021/04/14 11:34:31;;;;;;;2.55;2.17;;;;;;;26.55;28.44;97193.31;5085508;28;20081;-78
2021/04/14 11:36:59;;;;;;;2.72;2.20;;;;;;;27.18;26.63;97179.22;5108226;27;20050;-80
2021/04/14 11:39:26;;;;;;;3.33;2.65;;;;;;;27.85;26.90;97183.72;5098386;28;20414;-78
2021/04/14 11:42:12;;;;;;;5.53;2.47;;;;;;;28.34;26.05;97178.63;5102585;28;20038;-78
2021/04/14 11:44:42;;;;;;;4.07;3.03;;;;;;;27.79;28.27;97185.44;5099880;27;21407;-79